createdAt,value
2022-08-27T00:03:12.989Z,97121.53
2022-08-27T00:08:17.319Z,97123.94
2022-08-27T00:13:21.911Z,97116.56
2022-08-27T00:18:25.411Z,97120.13
2022-08-27T00:23:29.380Z,97117.06
2022-08-27T00:28:34.459Z,97118.81
2022-08-27T00:33:38.420Z,97114.28
2022-08-27T00:38:42.223Z,97116.56
2022-08-27T00:44:03.370Z,97119.94
2022-08-27T00:49:25.333Z,97115.75
2022-08-27T00:54:29.931Z,97114.94
2022-08-27T00:59:33.751Z,97111.22
2022-08-27T01:04:39.846Z,97115.28
2022-08-27T01:09:44.274Z,97114.94
2022-08-27T01:14:48.192Z,97110.28
2022-08-27T01:20:00.095Z,97121.22
2022-08-27T01:25:09.880Z,97116.41
2022-08-27T01:30:17.441Z,97115.09
2022-08-27T01:35:22.188Z,97119.75
2022-08-27T01:40:26.017Z,97126.16
2022-08-27T01:45:35.389Z,97132.59
2022-08-27T01:50:41.462Z,97131.78
2022-08-27T01:55:47.660Z,97131.78
2022-08-27T02:00:56.464Z,97137.25
2022-08-27T02:06:03.374Z,97128.25
2022-08-27T02:11:07.838Z,97134.69
2022-08-27T02:16:11.573Z,97126.66
2022-08-27T02:21:17.718Z,97134.84
2022-08-27T02:26:24.377Z,97134.66
2022-08-27T02:31:28.186Z,97127.91
2022-08-27T02:36:34.609Z,97126.59
2022-08-27T02:41:42.836Z,97135.78
2022-08-27T02:46:46.735Z,97145.72
2022-08-27T02:51:55.802Z,97147.81
2022-08-27T02:56:59.742Z,97156.97
2022-08-27T03:02:03.429Z,97158.44
2022-08-27T03:07:07.444Z,97163.56
2022-08-27T03:12:19.757Z,97159.88
2022-08-27T03:17:27.993Z,97159.88
2022-08-27T03:22:31.450Z,97164.53
2022-08-27T03:27:37.388Z,97175.13
2022-08-27T03:32:46.451Z,97177.22
2022-08-27T03:37:50.495Z,97172.75
2022-08-27T03:42:54.128Z,97180.28
2022-08-27T03:47:57.851Z,97180.16
2022-08-27T03:53:01.160Z,97176.63
2022-08-27T03:58:05.187Z,97189.13
2022-08-27T04:03:11.895Z,97192.38
2022-08-27T04:08:15.230Z,97189.34
2022-08-27T04:13:18.989Z,97193.03
2022-08-27T04:18:22.635Z,97187.94
2022-08-27T04:23:26.501Z,97187.63
2022-08-27T04:28:30.198Z,97185.09
2022-08-27T04:33:34.287Z,97196.56
2022-08-27T04:38:38.691Z,97193.19
2022-08-27T04:43:43.213Z,97186.78
2022-08-27T04:48:47.694Z,97187.91
2022-08-27T04:54:01.094Z,97194.81
2022-08-27T04:59:12.134Z,97193.56
2022-08-27T05:04:18.845Z,97184.69
2022-08-27T05:09:24.583Z,97185.19
2022-08-27T05:14:30.978Z,97191.28
2022-08-27T05:19:45.210Z,97186.78
2022-08-27T05:24:50.469Z,97180.09
2022-08-27T05:29:54.052Z,97186.72
2022-08-27T05:34:57.593Z,97187.59
2022-08-27T05:40:02.711Z,97189.22
2022-08-27T05:45:06.854Z,97200.97
2022-08-27T05:50:10.378Z,97208.31
2022-08-27T05:55:13.647Z,97215.44
2022-08-27T06:00:17.149Z,97202.03
2022-08-27T06:05:28.808Z,97200.56
2022-08-27T06:10:35.058Z,97205.53
2022-08-27T06:15:40.059Z,97213.56
2022-08-27T06:20:44.334Z,97212.03
2022-08-27T06:25:47.574Z,97215.31
2022-08-27T06:30:53.760Z,97213.97
2022-08-27T06:36:00.340Z,97212.09
2022-08-27T06:41:08.274Z,97211.75
2022-08-27T06:46:24.497Z,97218.66
2022-08-27T06:51:31.342Z,97217.41
2022-08-27T06:56:37.075Z,97219.84
2022-08-27T07:01:43.370Z,97221.69
2022-08-27T07:06:47.081Z,97216.06
2022-08-27T07:11:52.282Z,97219.72
2022-08-27T07:16:56.366Z,97219.56
2022-08-27T07:22:00.647Z,97225.31
2022-08-27T07:27:04.827Z,97226.59
2022-08-27T07:32:08.547Z,97226.38
2022-08-27T07:37:14.878Z,97228.56
2022-08-27T07:42:18.854Z,97231.63
2022-08-27T07:47:23.193Z,97221.53
2022-08-27T07:52:28.372Z,97229.88
2022-08-27T07:57:34.764Z,97222.91
2022-08-27T08:02:38.868Z,97227.59
2022-08-27T08:07:42.472Z,97224.00
2022-08-27T08:12:45.986Z,97216.41
2022-08-27T08:17:51.471Z,97215.94
2022-08-27T08:22:55.126Z,97226.97
2022-08-27T08:27:58.670Z,97227.53
2022-08-27T08:33:04.587Z,97216.94
2022-08-27T08:38:08.844Z,97219.06
2022-08-27T08:43:43.943Z,97212.53
2022-08-27T08:48:52.313Z,97211.94
2022-08-27T08:54:03.717Z,97213.34
2022-08-27T08:59:18.772Z,97215.50
2022-08-27T09:04:27.737Z,97206.88
2022-08-27T09:09:52.546Z,97206.25
2022-08-27T09:15:06.259Z,97195.84
2022-08-27T09:20:18.546Z,97195.47
2022-08-27T09:25:32.153Z,97197.13
2022-08-27T09:30:45.434Z,97194.38
2022-08-27T09:35:50.486Z,97198.66
2022-08-27T09:40:56.980Z,97191.88
2022-08-27T09:46:05.706Z,97191.00
2022-08-27T09:51:13.917Z,97180.59
2022-08-27T09:56:36.994Z,97185.38
2022-08-27T10:01:53.281Z,97197.19
2022-08-27T10:06:57.696Z,97193.28
2022-08-27T10:12:13.052Z,97195.25
2022-08-27T10:17:32.168Z,97189.34
2022-08-27T10:22:59.362Z,97195.47
2022-08-27T10:28:21.609Z,97179.53
2022-08-27T10:33:38.365Z,97196.53
2022-08-27T10:38:50.305Z,97179.47
2022-08-27T10:44:12.283Z,97187.97
2022-08-27T10:49:27.405Z,97181.78
2022-08-27T10:54:48.074Z,97181.91
2022-08-27T11:00:20.793Z,97186.94
2022-08-27T11:05:29.216Z,97195.97
2022-08-27T11:10:55.378Z,97190.94
2022-08-27T11:16:02.268Z,97191.31
2022-08-27T11:21:43.929Z,97189.97
2022-08-27T11:26:50.570Z,97180.22
2022-08-27T11:32:20.171Z,97167.50
2022-08-27T11:37:26.725Z,97173.53
2022-08-27T11:42:51.511Z,97161.69
2022-08-27T11:48:00.082Z,97167.91
2022-08-27T11:53:08.752Z,97160.47
2022-08-27T11:58:17.946Z,97162.41
2022-08-27T12:03:32.996Z,97162.53
2022-08-27T12:08:40.991Z,97168.84
2022-08-27T12:14:01.312Z,97147.44
2022-08-27T12:19:16.484Z,97157.75
2022-08-27T12:24:44.196Z,97155.50
2022-08-27T12:30:21.297Z,97154.22
2022-08-27T12:35:46.171Z,97161.78
2022-08-27T12:40:51.708Z,97165.75
2022-08-27T12:46:03.544Z,97163.94
2022-08-27T12:51:19.075Z,97157.06
2022-08-27T12:56:57.899Z,97161.28
2022-08-27T13:02:19.765Z,97157.41
2022-08-27T13:07:37.679Z,97143.44
2022-08-27T13:12:44.196Z,97142.59
2022-08-27T13:17:52.517Z,97132.09
2022-08-27T13:22:56.237Z,97125.00
2022-08-27T13:28:29.797Z,97139.28
2022-08-27T13:33:36.813Z,97137.38
2022-08-27T13:38:49.803Z,97122.41
2022-08-27T13:43:58.494Z,97125.50
2022-08-27T13:49:02.918Z,97124.00
2022-08-27T13:54:12.275Z,97121.41
2022-08-27T13:59:26.064Z,97123.13
2022-08-27T14:04:38.551Z,97116.13
2022-08-27T14:09:51.278Z,97119.28
2022-08-27T14:15:11.074Z,97123.28
2022-08-27T14:20:16.435Z,97118.81
2022-08-27T14:25:22.951Z,97105.75
2022-08-27T14:30:29.806Z,97103.47
2022-08-27T14:35:36.346Z,97102.06
2022-08-27T14:40:40.318Z,97101.94
2022-08-27T14:45:48.607Z,97099.19
2022-08-27T14:50:52.766Z,97099.41
2022-08-27T14:55:56.146Z,97097.47
2022-08-27T15:00:59.741Z,97091.03
2022-08-27T15:06:03.797Z,97099.34
2022-08-27T15:11:14.524Z,97095.06
2022-08-27T15:16:32.043Z,97094.00
2022-08-27T15:21:38.418Z,97091.19
2022-08-27T15:26:42.014Z,97098.66
2022-08-27T15:31:47.223Z,97104.03
2022-08-27T15:36:53.483Z,97089.56
2022-08-27T15:42:06.388Z,97094.75
2022-08-27T15:47:10.846Z,97095.16
2022-08-27T15:52:17.420Z,97098.97
2022-08-27T15:57:21.257Z,97099.00
2022-08-27T16:02:25.055Z,97090.16
2022-08-27T16:07:28.793Z,97095.00
2022-08-27T16:12:32.364Z,97097.97
2022-08-27T16:17:36.601Z,97091.88
2022-08-27T16:22:40.346Z,97085.25
2022-08-27T16:27:43.756Z,97094.94
2022-08-27T16:32:50.498Z,97096.41
2022-08-27T16:37:53.890Z,97091.09
2022-08-27T16:42:58.495Z,97097.22
2022-08-27T16:48:01.982Z,97101.44
2022-08-27T16:53:10.169Z,97100.28
2022-08-27T16:58:23.864Z,97110.28
2022-08-27T17:03:58.005Z,97108.66
2022-08-27T17:09:03.669Z,97112.06
2022-08-27T17:14:07.549Z,97112.41
2022-08-27T17:19:16.678Z,97116.75
2022-08-27T17:24:23.350Z,97120.63
2022-08-27T17:29:29.120Z,97124.31
2022-08-27T17:34:32.675Z,97116.13
2022-08-27T17:39:36.253Z,97130.59
2022-08-27T17:44:40.819Z,97130.94
2022-08-27T17:49:47.919Z,97136.72
2022-08-27T17:54:55.632Z,97133.50
2022-08-27T18:00:04.168Z,97138.34
2022-08-27T18:05:14.688Z,97144.91
2022-08-27T18:10:22.915Z,97147.19
2022-08-27T18:15:29.275Z,97150.25
2022-08-27T18:20:34.181Z,97145.91
2022-08-27T18:25:40.160Z,97149.44
2022-08-27T18:30:46.024Z,97148.66
2022-08-27T18:35:52.279Z,97150.59
2022-08-27T18:40:56.531Z,97141.56
2022-08-27T18:46:06.117Z,97146.22
2022-08-27T18:51:12.372Z,97142.53
2022-08-27T18:56:19.741Z,97147.84
2022-08-27T19:01:26.756Z,97147.72
2022-08-27T19:06:30.370Z,97160.09
2022-08-27T19:11:34.043Z,97158.94
2022-08-27T19:16:47.696Z,97149.94
2022-08-27T19:21:54.133Z,97161.69
2022-08-27T19:26:57.859Z,97162.81
2022-08-27T19:32:01.806Z,97164.41
2022-08-27T19:37:07.843Z,97175.38
2022-08-27T19:42:11.297Z,97177.28
2022-08-27T19:47:21.400Z,97177.63
2022-08-27T19:52:25.184Z,97175.22
2022-08-27T19:57:29.062Z,97176.34
2022-08-27T20:02:33.931Z,97177.16
2022-08-27T20:07:40.363Z,97179.09
2022-08-27T20:12:45.802Z,97178.59
2022-08-27T20:18:09.204Z,97171.19
2022-08-27T20:23:12.802Z,97168.44
2022-08-27T20:28:37.717Z,97175.06
2022-08-27T20:33:40.196Z,97178.59
2022-08-27T20:38:45.720Z,97187.94
2022-08-27T20:43:52.275Z,97175.84
2022-08-27T20:48:55.839Z,97167.19
2022-08-27T20:53:59.205Z,97161.72
2022-08-27T20:59:03.258Z,97171.38
2022-08-27T21:04:06.903Z,97158.00
2022-08-27T21:09:13.332Z,97152.06
2022-08-27T21:14:21.594Z,97152.22
2022-08-27T21:19:27.740Z,97140.50
2022-08-27T21:24:31.219Z,97133.72
2022-08-27T21:29:34.584Z,97135.97
2022-08-27T21:34:37.989Z,97134.34
2022-08-27T21:39:42.772Z,97147.22
2022-08-27T21:44:50.460Z,97153.00
2022-08-27T21:49:54.025Z,97147.22
2022-08-27T21:55:00.854Z,97144.00
2022-08-27T22:00:31.155Z,97150.47
2022-08-27T22:05:34.941Z,97146.75
2022-08-27T22:10:39.978Z,97154.97
2022-08-27T22:15:44.103Z,97159.31
2022-08-27T22:20:53.562Z,97158.34
2022-08-27T22:25:57.665Z,97153.00
2022-08-27T22:31:01.183Z,97145.28
2022-08-27T22:36:04.554Z,97148.84
2022-08-27T22:41:08.475Z,97148.84
2022-08-27T22:46:12.589Z,97145.13
2022-08-27T22:51:18.722Z,97137.25
2022-08-27T22:56:22.104Z,97148.84
2022-08-27T23:01:26.123Z,97133.09
2022-08-27T23:06:29.562Z,97129.56
2022-08-27T23:11:33.339Z,97120.53
2022-08-27T23:16:38.914Z,97114.25
2022-08-27T23:21:42.769Z,97119.72
2022-08-27T23:26:47.099Z,97112.19
2022-08-27T23:31:56.055Z,97096.38
2022-08-27T23:37:01.069Z,97097.84
2022-08-27T23:42:06.812Z,97104.44
2022-08-27T23:47:10.665Z,97104.25
2022-08-27T23:52:14.723Z,97109.44
2022-08-27T23:57:19.238Z,97105.06
